createdAt,value
2023-05-13T00:00:15.836Z,1.99
2023-05-13T00:01:15.844Z,2.05
2023-05-13T00:02:15.880Z,1.93
2023-05-13T00:03:16.314Z,2.04
2023-05-13T00:04:15.852Z,1.99
2023-05-13T00:05:15.846Z,2.12
2023-05-13T00:06:15.919Z,2.06
2023-05-13T00:07:15.903Z,2.11
2023-05-13T00:08:15.874Z,2.07
2023-05-13T00:09:15.874Z,2.05
2023-05-13T00:10:15.875Z,2.09
2023-05-13T00:11:15.858Z,2.07
2023-05-13T00:12:15.887Z,2.08
2023-05-13T00:13:15.868Z,2.05
2023-05-13T00:14:15.889Z,2.04
2023-05-13T00:15:15.895Z,2.07
2023-05-13T00:16:15.935Z,2.06
2023-05-13T00:17:15.908Z,2.08
2023-05-13T00:18:15.908Z,2.15
2023-05-13T00:19:15.911Z,2.12
2023-05-13T00:20:15.907Z,2.11
2023-05-13T00:21:15.919Z,2.15
2023-05-13T00:22:15.923Z,2.14
2023-05-13T00:23:15.936Z,2.16
2023-05-13T00:24:15.970Z,2.12
2023-05-13T00:25:15.935Z,2.10
2023-05-13T00:26:15.951Z,2.13
2023-05-13T00:27:15.974Z,2.05
2023-05-13T00:28:15.980Z,2.01
2023-05-13T00:29:15.986Z,2.04
2023-05-13T00:30:15.986Z,1.97
2023-05-13T00:31:16.028Z,1.96
2023-05-13T00:32:16.020Z,2.05
2023-05-13T00:33:16.026Z,2.09
2023-05-13T00:34:16.046Z,2.16
2023-05-13T00:35:16.053Z,2.21
2023-05-13T00:36:16.046Z,2.19
2023-05-13T00:37:16.067Z,2.20
2023-05-13T00:38:16.099Z,2.20
2023-05-13T00:39:16.096Z,2.11
2023-05-13T00:40:16.078Z,2.07
2023-05-13T00:41:16.106Z,2.03
2023-05-13T00:42:16.108Z,2.10
2023-05-13T00:43:16.112Z,2.06
2023-05-13T00:44:16.138Z,2.09
2023-05-13T00:45:16.126Z,2.03
2023-05-13T00:46:16.202Z,1.97
2023-05-13T00:47:16.148Z,2.13
2023-05-13T00:48:16.160Z,2.12
2023-05-13T00:49:16.187Z,2.05
2023-05-13T00:50:16.176Z,2.01
2023-05-13T00:51:16.268Z,2.03
2023-05-13T00:52:16.223Z,2.05
2023-05-13T00:53:16.218Z,2.10
2023-05-13T00:54:16.240Z,2.08
2023-05-13T00:55:16.259Z,2.07
2023-05-13T00:56:16.266Z,2.11
2023-05-13T00:57:16.273Z,2.04
2023-05-13T00:58:16.308Z,2.14
2023-05-13T00:59:16.276Z,2.07
2023-05-13T01:00:16.293Z,2.01
2023-05-13T01:01:16.429Z,2.00
2023-05-13T01:02:16.361Z,2.06
2023-05-13T01:03:16.537Z,2.05
2023-05-13T01:04:16.371Z,2.01
2023-05-13T01:05:16.372Z,2.00
2023-05-13T01:06:16.394Z,2.00
2023-05-13T01:07:16.403Z,2.04
2023-05-13T01:08:16.419Z,1.98
2023-05-13T01:09:16.440Z,2.02
2023-05-13T01:10:16.461Z,2.04
2023-05-13T01:11:16.472Z,2.05
2023-05-13T01:12:16.498Z,2.06
2023-05-13T01:13:16.508Z,2.12
2023-05-13T01:14:16.499Z,2.07
2023-05-13T01:15:16.524Z,2.13
2023-05-13T01:16:16.567Z,2.10
2023-05-13T01:17:16.526Z,2.05
2023-05-13T01:18:16.563Z,2.01
2023-05-13T01:19:16.589Z,2.00
2023-05-13T01:20:16.557Z,2.02
2023-05-13T01:21:16.571Z,1.99
2023-05-13T01:22:16.585Z,1.99
2023-05-13T01:23:16.586Z,1.98
2023-05-13T01:24:16.636Z,2.00
2023-05-13T01:25:16.629Z,2.00
2023-05-13T01:26:16.627Z,2.01
2023-05-13T01:27:16.632Z,2.06
2023-05-13T01:28:16.691Z,2.01
2023-05-13T01:29:16.673Z,1.97
2023-05-13T01:30:16.699Z,1.93
2023-05-13T01:31:16.717Z,1.93
2023-05-13T01:32:16.739Z,1.92
2023-05-13T01:33:16.749Z,1.90
2023-05-13T01:34:16.755Z,1.98
2023-05-13T01:35:16.769Z,1.99
2023-05-13T01:36:16.772Z,2.00
2023-05-13T01:37:16.785Z,1.96
2023-05-13T01:38:16.805Z,1.99
2023-05-13T01:39:16.823Z,1.96
2023-05-13T01:40:31.158Z,1.99
2023-05-13T01:41:17.838Z,1.99
2023-05-13T01:42:16.805Z,2.00
2023-05-13T01:43:16.832Z,2.01
2023-05-13T01:44:16.810Z,2.01
2023-05-13T01:45:16.784Z,2.04
2023-05-13T01:46:16.819Z,2.03
2023-05-13T01:47:16.775Z,2.11
2023-05-13T01:48:16.783Z,2.08
2023-05-13T01:49:16.765Z,2.05
2023-05-13T01:50:16.747Z,2.08
2023-05-13T01:51:16.743Z,2.15
2023-05-13T01:52:16.747Z,2.09
2023-05-13T01:53:16.725Z,2.07
2023-05-13T01:54:16.710Z,2.15
2023-05-13T01:55:16.728Z,2.11
2023-05-13T01:56:16.709Z,2.18
2023-05-13T01:57:16.715Z,2.13
2023-05-13T01:58:16.687Z,2.16
2023-05-13T01:59:16.677Z,2.13
2023-05-13T02:00:16.664Z,2.08
2023-05-13T02:01:16.684Z,2.11
2023-05-13T02:02:16.751Z,2.13
2023-05-13T02:03:16.750Z,2.12
2023-05-13T02:04:16.654Z,2.06
2023-05-13T02:05:16.654Z,2.08
2023-05-13T02:06:16.637Z,2.11
2023-05-13T02:07:16.633Z,2.05
2023-05-13T02:08:16.673Z,2.14
2023-05-13T02:09:16.678Z,2.01
2023-05-13T02:10:16.697Z,2.08
2023-05-13T02:11:16.709Z,1.98
2023-05-13T02:12:16.704Z,2.02
2023-05-13T02:13:16.725Z,2.07
2023-05-13T02:14:16.756Z,2.01
2023-05-13T02:15:16.771Z,1.95
2023-05-13T02:16:16.793Z,2.01
2023-05-13T02:17:16.815Z,1.96
2023-05-13T02:18:16.823Z,1.94
2023-05-13T02:19:17.016Z,2.05
2023-05-13T02:20:16.859Z,2.02
2023-05-13T02:21:16.909Z,1.99
2023-05-13T02:22:16.880Z,2.01
2023-05-13T02:23:16.913Z,1.99
2023-05-13T02:24:16.919Z,2.06
2023-05-13T02:25:16.926Z,1.99
2023-05-13T02:26:16.948Z,2.04
2023-05-13T02:27:17.029Z,2.02
2023-05-13T02:28:17.031Z,2.05
2023-05-13T02:29:17.020Z,2.05
2023-05-13T02:30:17.031Z,2.06
2023-05-13T02:31:17.065Z,2.07
2023-05-13T02:32:17.101Z,2.07
2023-05-13T02:33:17.087Z,2.05
2023-05-13T02:34:17.098Z,2.01
2023-05-13T02:35:17.142Z,2.04
2023-05-13T02:36:17.154Z,2.04
2023-05-13T02:37:17.170Z,2.05
2023-05-13T02:38:17.173Z,2.05
2023-05-13T02:39:17.210Z,2.06
2023-05-13T02:40:17.208Z,2.05
2023-05-13T02:41:17.220Z,2.08
2023-05-13T02:42:17.254Z,2.08
2023-05-13T02:43:17.283Z,2.10
2023-05-13T02:44:17.307Z,2.13
2023-05-13T02:45:17.307Z,2.11
2023-05-13T02:46:17.359Z,2.11
2023-05-13T02:47:17.367Z,2.11
2023-05-13T02:48:17.395Z,2.14
2023-05-13T02:49:17.385Z,2.19
2023-05-13T02:50:17.413Z,2.17
2023-05-13T02:51:17.422Z,2.18
2023-05-13T02:52:17.437Z,2.16
2023-05-13T02:53:17.486Z,2.17
2023-05-13T02:54:17.501Z,2.22
2023-05-13T02:55:17.592Z,2.20
2023-05-13T02:56:17.521Z,2.20
2023-05-13T02:57:17.549Z,2.23
2023-05-13T02:58:17.572Z,2.19
2023-05-13T02:59:17.608Z,2.24
2023-05-13T03:00:17.668Z,2.20
2023-05-13T03:01:17.710Z,2.24
2023-05-13T03:02:17.682Z,2.18
2023-05-13T03:03:17.706Z,2.24
2023-05-13T03:04:17.684Z,2.16
2023-05-13T03:05:17.722Z,2.17
2023-05-13T03:06:17.729Z,2.25
2023-05-13T03:07:17.759Z,2.27
2023-05-13T03:08:17.790Z,2.21
2023-05-13T03:09:17.804Z,2.22
2023-05-13T03:10:17.804Z,2.21
2023-05-13T03:11:17.832Z,2.29
2023-05-13T03:12:17.851Z,2.28
2023-05-13T03:13:17.879Z,2.22
2023-05-13T03:14:17.905Z,2.32
2023-05-13T03:15:17.938Z,2.24
2023-05-13T03:16:18.001Z,2.31
2023-05-13T03:17:17.955Z,2.31
2023-05-13T03:18:17.994Z,2.31
2023-05-13T03:19:18.048Z,2.32
2023-05-13T03:20:18.069Z,2.33
2023-05-13T03:21:18.092Z,2.32
2023-05-13T03:22:18.079Z,2.31
2023-05-13T03:23:19.028Z,2.30
2023-05-13T03:24:18.126Z,2.37
2023-05-13T03:25:18.135Z,2.37
2023-05-13T03:26:18.171Z,2.34
2023-05-13T03:27:18.182Z,2.29
2023-05-13T03:28:18.214Z,2.34
2023-05-13T03:29:18.248Z,2.30
2023-05-13T03:30:18.274Z,2.31
2023-05-13T03:31:18.459Z,2.43
2023-05-13T03:32:18.283Z,2.36
2023-05-13T03:33:18.324Z,2.40
2023-05-13T03:34:18.340Z,2.43
2023-05-13T03:35:18.352Z,2.47
2023-05-13T03:36:18.363Z,2.45
2023-05-13T03:37:18.392Z,2.37
2023-05-13T03:38:18.429Z,2.40
2023-05-13T03:39:18.440Z,2.43
2023-05-13T03:40:18.542Z,2.33
2023-05-13T03:41:18.478Z,2.34
2023-05-13T03:42:18.522Z,2.34
2023-05-13T03:43:18.514Z,2.38
2023-05-13T03:44:18.553Z,2.29
2023-05-13T03:45:18.556Z,2.34
2023-05-13T03:46:18.618Z,2.32
2023-05-13T03:47:18.606Z,2.27
2023-05-13T03:48:18.615Z,2.28
2023-05-13T03:49:18.624Z,2.28
2023-05-13T03:50:18.753Z,2.26
2023-05-13T03:51:18.692Z,2.29
2023-05-13T03:52:18.724Z,2.24
2023-05-13T03:53:18.728Z,2.31
2023-05-13T03:54:18.758Z,2.25
2023-05-13T03:55:18.778Z,2.25
2023-05-13T03:56:18.807Z,2.21
2023-05-13T03:57:18.815Z,2.17
2023-05-13T03:58:18.860Z,2.15
2023-05-13T03:59:18.884Z,2.15
2023-05-13T04:00:19.107Z,2.13
2023-05-13T04:01:18.938Z,2.07
2023-05-13T04:02:19.092Z,2.11
2023-05-13T04:03:19.089Z,2.13
2023-05-13T04:04:19.028Z,2.14
2023-05-13T04:05:19.132Z,2.10
2023-05-13T04:06:19.071Z,2.11
2023-05-13T04:07:19.075Z,2.05
2023-05-13T04:08:19.114Z,1.98
2023-05-13T04:09:19.142Z,2.04
2023-05-13T04:10:19.280Z,2.05
2023-05-13T04:11:19.184Z,2.05
2023-05-13T04:12:19.234Z,2.04
2023-05-13T04:13:19.247Z,2.11
2023-05-13T04:14:19.262Z,2.12
2023-05-13T04:15:19.299Z,2.11
2023-05-13T04:16:19.340Z,2.12
2023-05-13T04:17:19.362Z,2.23
2023-05-13T04:18:19.382Z,2.19
2023-05-13T04:19:19.392Z,2.16
2023-05-13T04:20:19.567Z,2.21
2023-05-13T04:21:19.441Z,2.16
2023-05-13T04:22:19.465Z,2.21
2023-05-13T04:23:19.482Z,2.22
2023-05-13T04:24:19.515Z,2.24
2023-05-13T04:25:19.540Z,2.19
2023-05-13T04:26:19.555Z,2.26
2023-05-13T04:27:19.599Z,2.28
2023-05-13T04:28:19.592Z,2.34
2023-05-13T04:29:19.626Z,2.33
2023-05-13T04:30:19.938Z,2.28
2023-05-13T04:31:19.714Z,2.34
2023-05-13T04:32:19.702Z,2.35
2023-05-13T04:33:19.741Z,2.29
2023-05-13T04:34:19.751Z,2.21
2023-05-13T04:35:19.793Z,2.21
2023-05-13T04:36:19.801Z,2.23
2023-05-13T04:37:19.829Z,2.23
2023-05-13T04:38:19.848Z,2.24
2023-05-13T04:39:19.893Z,2.23
2023-05-13T04:40:20.044Z,2.23
2023-05-13T04:41:19.920Z,2.24
2023-05-13T04:42:19.942Z,2.26
2023-05-13T04:43:19.975Z,2.15
2023-05-13T04:44:20.008Z,2.19
2023-05-13T04:45:20.035Z,2.15
2023-05-13T04:46:20.109Z,2.17
2023-05-13T04:47:20.119Z,2.12
2023-05-13T04:48:20.102Z,2.14
2023-05-13T04:49:20.116Z,2.06
2023-05-13T04:50:20.268Z,2.10
2023-05-13T04:51:20.177Z,2.11
2023-05-13T04:52:20.203Z,2.09
2023-05-13T04:53:20.209Z,1.99
2023-05-13T04:54:20.226Z,2.04
2023-05-13T04:55:20.265Z,2.01
2023-05-13T04:56:20.276Z,2.04
2023-05-13T04:57:20.315Z,2.00
2023-05-13T04:58:20.321Z,1.98
2023-05-13T04:59:20.356Z,1.96
2023-05-13T05:00:20.594Z,1.97
2023-05-13T05:01:20.428Z,1.98
2023-05-13T05:02:20.389Z,1.92
2023-05-13T05:03:20.422Z,1.97
2023-05-13T05:04:20.493Z,1.95
2023-05-13T05:05:20.461Z,1.96
2023-05-13T05:06:20.498Z,1.86
2023-05-13T05:07:20.504Z,1.88
2023-05-13T05:08:20.507Z,1.85
2023-05-13T05:09:20.553Z,1.90
2023-05-13T05:10:20.854Z,1.84
2023-05-13T05:11:20.607Z,1.85
2023-05-13T05:12:20.611Z,1.80
2023-05-13T05:13:20.659Z,1.83
2023-05-13T05:14:20.689Z,1.80
2023-05-13T05:15:20.761Z,1.79
2023-05-13T05:16:20.701Z,1.73
2023-05-13T05:17:20.752Z,1.72
2023-05-13T05:18:20.814Z,1.73
2023-05-13T05:19:20.821Z,1.76
2023-05-13T05:20:20.974Z,1.78
2023-05-13T05:21:20.820Z,1.78
2023-05-13T05:22:20.875Z,1.82
2023-05-13T05:23:20.880Z,1.86
2023-05-13T05:24:20.883Z,1.85
2023-05-13T05:25:20.905Z,1.84
2023-05-13T05:26:20.950Z,1.81
2023-05-13T05:27:20.944Z,1.87
2023-05-13T05:28:20.990Z,1.82
2023-05-13T05:29:20.999Z,1.84
2023-05-13T05:30:21.238Z,1.88
2023-05-13T05:31:21.060Z,1.83
2023-05-13T05:32:21.083Z,1.78
2023-05-13T05:33:21.096Z,1.84
2023-05-13T05:34:21.124Z,1.81
2023-05-13T05:35:21.122Z,1.80
2023-05-13T05:36:21.171Z,1.81
2023-05-13T05:37:21.164Z,1.82
2023-05-13T05:38:21.196Z,1.83
2023-05-13T05:39:21.203Z,1.80
2023-05-13T05:40:21.417Z,1.88
2023-05-13T05:41:21.241Z,1.87
2023-05-13T05:42:21.274Z,1.84
2023-05-13T05:43:21.300Z,1.82
2023-05-13T05:44:21.324Z,1.76
2023-05-13T05:45:21.339Z,1.83
2023-05-13T05:46:21.380Z,1.86
2023-05-13T05:47:21.394Z,1.88
2023-05-13T05:48:21.422Z,1.86
2023-05-13T05:49:21.446Z,1.87
2023-05-13T05:50:21.579Z,1.85
2023-05-13T05:51:21.474Z,1.89
2023-05-13T05:52:21.504Z,1.88
2023-05-13T05:53:21.499Z,1.88
2023-05-13T05:54:21.536Z,1.82
2023-05-13T05:55:21.565Z,1.90
2023-05-13T05:56:21.564Z,1.86
2023-05-13T05:57:21.634Z,1.87
2023-05-13T05:58:21.606Z,1.91
2023-05-13T05:59:21.655Z,1.89
2023-05-13T06:00:21.699Z,1.85
2023-05-13T06:01:21.676Z,1.87
2023-05-13T06:02:21.704Z,1.89
2023-05-13T06:03:21.814Z,1.92
2023-05-13T06:04:21.770Z,1.86
2023-05-13T06:05:21.721Z,1.91
2023-05-13T06:06:21.741Z,1.91
2023-05-13T06:07:21.768Z,1.84
2023-05-13T06:08:21.767Z,1.89
2023-05-13T06:09:21.783Z,1.88
2023-05-13T06:10:21.997Z,1.89
2023-05-13T06:11:21.813Z,1.88
2023-05-13T06:12:21.849Z,1.86
2023-05-13T06:13:21.855Z,1.78
2023-05-13T06:14:21.891Z,1.81
2023-05-13T06:15:21.874Z,1.80
2023-05-13T06:16:21.961Z,1.81
2023-05-13T06:17:21.927Z,1.85
2023-05-13T06:18:21.959Z,1.87
2023-05-13T06:19:21.949Z,1.85
2023-05-13T06:20:22.182Z,1.86
2023-05-13T06:21:21.979Z,1.89
2023-05-13T06:22:22.001Z,1.85
2023-05-13T06:23:22.006Z,1.85
2023-05-13T06:24:22.021Z,1.86
2023-05-13T06:25:22.060Z,1.88
2023-05-13T06:26:22.067Z,1.87
2023-05-13T06:27:22.084Z,1.87
2023-05-13T06:28:22.112Z,1.96
2023-05-13T06:29:22.113Z,1.87
2023-05-13T06:30:22.335Z,1.79
2023-05-13T06:31:22.238Z,1.87
2023-05-13T06:32:22.222Z,1.83
2023-05-13T06:33:22.313Z,1.83
2023-05-13T06:34:22.214Z,1.76
2023-05-13T06:35:22.237Z,1.81
2023-05-13T06:36:22.260Z,1.85
2023-05-13T06:37:22.292Z,1.85
2023-05-13T06:38:22.284Z,1.83
2023-05-13T06:39:22.310Z,1.81
2023-05-13T06:40:22.457Z,1.78
2023-05-13T06:41:22.349Z,1.79
2023-05-13T06:42:22.349Z,1.70
2023-05-13T06:43:22.385Z,1.64
2023-05-13T06:44:22.381Z,1.64
2023-05-13T06:45:22.417Z,1.64
2023-05-13T06:46:22.429Z,1.63
2023-05-13T06:47:23.863Z,1.66
2023-05-13T06:48:22.456Z,1.60
2023-05-13T06:49:22.458Z,1.66
2023-05-13T06:50:22.686Z,1.66
2023-05-13T06:51:22.486Z,1.65
2023-05-13T06:52:22.513Z,1.62
2023-05-13T06:53:22.522Z,1.59
2023-05-13T06:54:22.547Z,1.64
2023-05-13T06:55:22.574Z,1.65
2023-05-13T06:56:22.579Z,1.62
2023-05-13T06:57:25.186Z,1.52
2023-05-13T06:58:23.605Z,1.52
2023-05-13T06:59:22.581Z,1.53
2023-05-13T07:00:22.791Z,1.53
2023-05-13T07:01:22.600Z,1.55
2023-05-13T07:02:22.571Z,1.46
2023-05-13T07:03:22.599Z,1.44
2023-05-13T07:04:22.559Z,1.41
2023-05-13T07:05:22.528Z,1.41
2023-05-13T07:06:22.521Z,1.41
2023-05-13T07:07:22.522Z,1.42
2023-05-13T07:08:22.508Z,1.39
2023-05-13T07:09:22.512Z,1.42
2023-05-13T07:10:22.807Z,1.44
2023-05-13T07:11:22.500Z,1.42
2023-05-13T07:12:22.481Z,1.39
2023-05-13T07:13:22.488Z,1.39
2023-05-13T07:14:22.482Z,1.43
2023-05-13T07:15:22.628Z,1.49
2023-05-13T07:16:22.463Z,1.53
2023-05-13T07:17:22.532Z,1.52
2023-05-13T07:18:22.571Z,1.55
2023-05-13T07:19:22.635Z,1.54
2023-05-13T07:20:22.795Z,1.51
2023-05-13T07:21:22.425Z,1.54
2023-05-13T07:22:22.398Z,1.46
2023-05-13T07:23:22.395Z,1.44
2023-05-13T07:24:22.386Z,1.41
2023-05-13T07:25:22.386Z,1.41
2023-05-13T07:26:22.421Z,1.46
2023-05-13T07:27:22.440Z,1.42
2023-05-13T07:28:22.466Z,1.41
2023-05-13T07:29:22.471Z,1.40
2023-05-13T07:30:22.762Z,1.40
2023-05-13T07:31:22.534Z,1.42
2023-05-13T07:32:22.548Z,1.53
2023-05-13T07:33:22.518Z,1.53
2023-05-13T07:34:22.523Z,1.58
2023-05-13T07:35:22.651Z,1.56
2023-05-13T07:36:22.541Z,1.53
2023-05-13T07:37:22.536Z,1.55
2023-05-13T07:38:22.563Z,1.61
2023-05-13T07:39:22.555Z,1.55
2023-05-13T07:40:22.772Z,1.58
2023-05-13T07:41:22.604Z,1.61
2023-05-13T07:42:22.590Z,1.51
2023-05-13T07:43:22.611Z,1.51
2023-05-13T07:44:22.609Z,1.51
2023-05-13T07:45:22.771Z,1.51
2023-05-13T07:46:22.705Z,1.49
2023-05-13T07:47:22.708Z,1.50
2023-05-13T07:48:22.651Z,1.56
2023-05-13T07:49:22.657Z,1.59
2023-05-13T07:50:22.655Z,1.61
2023-05-13T07:51:22.689Z,1.60
2023-05-13T07:52:22.711Z,1.63
2023-05-13T07:53:22.701Z,1.57
2023-05-13T07:54:22.700Z,1.52
2023-05-13T07:55:22.887Z,1.51
2023-05-13T07:56:22.710Z,1.52
2023-05-13T07:57:22.728Z,1.55
2023-05-13T07:58:22.740Z,1.56
2023-05-13T07:59:22.877Z,1.51
2023-05-13T08:00:22.760Z,1.48
2023-05-13T08:01:22.771Z,1.54
2023-05-13T08:02:22.840Z,1.66
2023-05-13T08:03:22.893Z,1.80
2023-05-13T08:04:22.957Z,1.95
2023-05-13T08:05:22.969Z,1.95
2023-05-13T08:06:22.833Z,2.14
2023-05-13T08:07:22.850Z,2.12
2023-05-13T08:08:22.889Z,2.07
2023-05-13T08:09:22.884Z,2.15
2023-05-13T08:10:22.872Z,2.24
2023-05-13T08:11:22.902Z,2.23
2023-05-13T08:12:22.913Z,2.17
2023-05-13T08:13:22.897Z,2.08
2023-05-13T08:14:22.920Z,2.09
2023-05-13T08:15:23.084Z,2.07
2023-05-13T08:16:23.092Z,2.05
2023-05-13T08:17:22.960Z,2.06
2023-05-13T08:18:23.017Z,2.11
2023-05-13T08:19:22.963Z,2.06
2023-05-13T08:20:23.058Z,1.98
2023-05-13T08:21:22.972Z,1.97
2023-05-13T08:22:22.988Z,1.93
2023-05-13T08:23:28.322Z,1.89
2023-05-13T08:24:23.999Z,1.89
2023-05-13T08:25:23.210Z,1.90
2023-05-13T08:26:22.969Z,1.91
2023-05-13T08:27:22.954Z,1.91
2023-05-13T08:28:22.954Z,1.85
2023-05-13T08:29:22.943Z,1.86
2023-05-13T08:30:22.989Z,1.83
2023-05-13T08:31:22.935Z,1.80
2023-05-13T08:32:22.996Z,1.77
2023-05-13T08:33:22.892Z,1.80
2023-05-13T08:34:22.894Z,1.79
2023-05-13T08:35:23.097Z,1.76
2023-05-13T08:36:22.872Z,1.76
2023-05-13T08:37:22.861Z,1.78
2023-05-13T08:38:22.866Z,1.75
2023-05-13T08:39:22.857Z,1.72
2023-05-13T08:40:22.942Z,1.69
2023-05-13T08:41:22.886Z,1.71
2023-05-13T08:42:22.834Z,1.74
2023-05-13T08:43:22.840Z,1.67
2023-05-13T08:44:22.810Z,1.69
2023-05-13T08:45:22.949Z,1.61
2023-05-13T08:46:22.838Z,1.60
2023-05-13T08:47:22.842Z,1.58
2023-05-13T08:48:22.793Z,1.61
2023-05-13T08:49:22.778Z,1.56
2023-05-13T08:50:22.816Z,1.61
2023-05-13T08:51:22.784Z,1.66
2023-05-13T08:52:22.752Z,1.63
2023-05-13T08:53:22.749Z,1.55
2023-05-13T08:54:24.079Z,1.54
2023-05-13T08:55:23.031Z,1.56
2023-05-13T08:56:22.729Z,1.59
2023-05-13T08:57:22.732Z,1.62
2023-05-13T08:58:22.708Z,1.55
2023-05-13T08:59:22.739Z,1.57
2023-05-13T09:00:22.753Z,1.63
2023-05-13T09:01:22.778Z,1.64
2023-05-13T09:02:22.706Z,1.65
2023-05-13T09:03:22.691Z,1.62
2023-05-13T09:04:22.888Z,1.57
2023-05-13T09:05:23.133Z,1.53
2023-05-13T09:06:22.693Z,1.49
2023-05-13T09:07:22.681Z,1.60
2023-05-13T09:08:22.651Z,1.63
2023-05-13T09:09:22.657Z,1.76
2023-05-13T09:10:22.667Z,1.73
2023-05-13T09:11:22.671Z,1.67
2023-05-13T09:12:22.696Z,1.63
2023-05-13T09:13:22.704Z,1.68
2023-05-13T09:14:22.747Z,1.84
2023-05-13T09:15:23.208Z,1.84
2023-05-13T09:16:22.915Z,1.84
2023-05-13T09:17:22.890Z,1.82
2023-05-13T09:18:22.983Z,1.76
2023-05-13T09:19:22.976Z,1.81
2023-05-13T09:20:22.965Z,1.73
2023-05-13T09:21:22.951Z,1.69
2023-05-13T09:22:22.975Z,1.70
2023-05-13T09:23:23.007Z,1.66
2023-05-13T09:24:23.059Z,1.73
2023-05-13T09:25:23.346Z,1.69
2023-05-13T09:26:23.141Z,1.62
2023-05-13T09:27:23.174Z,1.65
2023-05-13T09:28:23.235Z,1.77
2023-05-13T09:29:23.296Z,1.91
2023-05-13T09:30:23.335Z,1.98
2023-05-13T09:31:23.395Z,1.99
2023-05-13T09:32:23.420Z,1.96
2023-05-13T09:33:23.489Z,1.98
2023-05-13T09:34:23.525Z,2.05
2023-05-13T09:35:23.709Z,2.02
2023-05-13T09:36:23.653Z,2.04
2023-05-13T09:37:23.714Z,2.04
2023-05-13T09:38:23.760Z,2.09
2023-05-13T09:39:23.814Z,2.05
2023-05-13T09:40:24.111Z,2.17
2023-05-13T09:41:23.921Z,2.13
2023-05-13T09:42:23.986Z,2.09
2023-05-13T09:43:24.077Z,2.05
2023-05-13T09:44:24.113Z,2.04
2023-05-13T09:45:24.158Z,2.04
2023-05-13T09:46:24.260Z,1.97
2023-05-13T09:47:24.352Z,1.90
2023-05-13T09:48:24.335Z,1.92
2023-05-13T09:49:24.412Z,1.85
2023-05-13T09:50:24.682Z,1.82
2023-05-13T09:51:24.539Z,1.83
2023-05-13T09:52:24.597Z,1.84
2023-05-13T09:53:24.670Z,1.78
2023-05-13T09:54:24.723Z,1.81
2023-05-13T09:55:24.804Z,1.74
2023-05-13T09:56:24.852Z,1.74
2023-05-13T09:57:24.875Z,1.75
2023-05-13T09:58:24.954Z,1.71
2023-05-13T09:59:25.006Z,1.63
2023-05-13T10:00:32.682Z,1.63
2023-05-13T10:01:26.139Z,1.58
2023-05-13T10:02:25.094Z,1.59
2023-05-13T10:03:25.065Z,1.61
2023-05-13T10:04:25.099Z,1.59
2023-05-13T10:05:25.028Z,1.54
2023-05-13T10:06:25.025Z,1.52
2023-05-13T10:07:25.009Z,1.51
2023-05-13T10:08:25.023Z,1.55
2023-05-13T10:09:25.021Z,1.48
2023-05-13T10:10:25.061Z,1.50
2023-05-13T10:11:25.122Z,1.51
2023-05-13T10:12:25.196Z,1.45
2023-05-13T10:13:25.274Z,1.45
2023-05-13T10:14:25.269Z,1.41
2023-05-13T10:15:25.327Z,1.41
2023-05-13T10:16:25.390Z,1.40
2023-05-13T10:17:25.427Z,1.46
2023-05-13T10:18:25.477Z,1.48
2023-05-13T10:19:25.536Z,1.36
2023-05-13T10:20:25.568Z,1.35
2023-05-13T10:21:25.637Z,1.18
2023-05-13T10:22:25.648Z,1.19
2023-05-13T10:23:25.704Z,1.08
2023-05-13T10:24:25.729Z,1.07
2023-05-13T10:25:25.767Z,1.14
2023-05-13T10:26:25.813Z,1.13
2023-05-13T10:27:25.830Z,1.10
2023-05-13T10:28:25.892Z,1.13
2023-05-13T10:29:25.890Z,1.15
2023-05-13T10:30:25.939Z,1.10
2023-05-13T10:31:25.982Z,1.14
2023-05-13T10:32:26.035Z,1.11
2023-05-13T10:33:26.012Z,1.17
2023-05-13T10:34:26.037Z,1.18
2023-05-13T10:35:26.046Z,1.18
2023-05-13T10:36:26.080Z,1.18
2023-05-13T10:37:26.093Z,1.14
2023-05-13T10:38:26.108Z,1.12
2023-05-13T10:39:26.174Z,1.14
2023-05-13T10:40:26.178Z,1.09
2023-05-13T10:41:26.201Z,1.10
2023-05-13T10:42:26.209Z,1.12
2023-05-13T10:43:26.236Z,1.15
2023-05-13T10:44:26.268Z,1.17
2023-05-13T10:45:26.287Z,1.18
2023-05-13T10:46:26.321Z,1.17
2023-05-13T10:47:26.362Z,1.18
2023-05-13T10:48:26.408Z,1.20
2023-05-13T10:49:26.378Z,1.21
2023-05-13T10:50:26.388Z,1.19
2023-05-13T10:51:26.412Z,1.19
2023-05-13T10:52:26.431Z,1.27
2023-05-13T10:53:26.482Z,1.31
2023-05-13T10:54:26.487Z,1.34
2023-05-13T10:55:26.527Z,1.34
2023-05-13T10:56:26.537Z,1.32
2023-05-13T10:57:26.568Z,1.34
2023-05-13T10:58:26.589Z,1.33
2023-05-13T10:59:26.701Z,1.35
2023-05-13T11:00:26.651Z,1.34
2023-05-13T11:01:26.714Z,1.28
2023-05-13T11:02:26.753Z,1.29
2023-05-13T11:03:28.906Z,1.36
2023-05-13T11:04:26.927Z,1.35
2023-05-13T11:05:26.963Z,1.37
2023-05-13T11:06:26.990Z,1.38
2023-05-13T11:07:27.018Z,1.34
2023-05-13T11:08:27.048Z,1.37
2023-05-13T11:09:27.086Z,1.37
2023-05-13T11:10:27.118Z,1.35
2023-05-13T11:11:27.152Z,1.31
2023-05-13T11:12:27.186Z,1.31
2023-05-13T11:13:28.727Z,1.31
2023-05-13T11:14:27.240Z,1.32
2023-05-13T11:15:27.279Z,1.35
2023-05-13T11:16:27.372Z,1.37
2023-05-13T11:17:27.320Z,1.32
2023-05-13T11:18:27.397Z,1.28
2023-05-13T11:19:27.417Z,1.29
2023-05-13T11:20:27.404Z,1.33
2023-05-13T11:21:27.436Z,1.34
2023-05-13T11:22:27.491Z,1.35
2023-05-13T11:23:27.476Z,1.36
2023-05-13T11:24:27.492Z,1.32
2023-05-13T11:25:27.543Z,1.24
2023-05-13T11:26:27.544Z,1.20
2023-05-13T11:27:27.587Z,1.23
2023-05-13T11:28:27.585Z,1.23
2023-05-13T11:29:27.622Z,1.21
2023-05-13T11:30:27.638Z,1.22
2023-05-13T11:31:27.748Z,1.21
2023-05-13T11:32:27.728Z,1.18
2023-05-13T11:33:27.694Z,1.23
2023-05-13T11:34:27.722Z,1.17
2023-05-13T11:35:27.760Z,1.15
2023-05-13T11:36:27.759Z,1.17
2023-05-13T11:37:27.793Z,1.21
2023-05-13T11:38:27.804Z,1.14
2023-05-13T11:39:27.831Z,1.07
2023-05-13T11:40:27.848Z,1.06
2023-05-13T11:41:27.866Z,1.14
2023-05-13T11:42:27.871Z,1.11
2023-05-13T11:43:27.887Z,1.11
2023-05-13T11:44:27.923Z,1.09
2023-05-13T11:45:27.966Z,1.09
2023-05-13T11:46:28.000Z,1.11
2023-05-13T11:47:27.985Z,1.11
2023-05-13T11:48:28.006Z,1.12
2023-05-13T11:49:28.001Z,1.10
2023-05-13T11:50:28.063Z,1.12
2023-05-13T11:51:28.060Z,1.11
2023-05-13T11:52:28.085Z,1.09
2023-05-13T11:53:28.116Z,1.14
2023-05-13T11:54:28.120Z,1.13
2023-05-13T11:55:28.182Z,1.18
2023-05-13T11:56:28.162Z,1.17
2023-05-13T11:57:28.208Z,1.09
2023-05-13T11:58:28.228Z,1.08
2023-05-13T11:59:35.880Z,1.07
2023-05-13T12:00:29.280Z,1.07
2023-05-13T12:01:28.221Z,1.08
2023-05-13T12:02:28.325Z,1.08
2023-05-13T12:03:28.242Z,1.10
2023-05-13T12:04:28.198Z,1.11
2023-05-13T12:05:28.332Z,1.10
2023-05-13T12:06:28.185Z,1.12
2023-05-13T12:07:28.193Z,1.06
2023-05-13T12:08:28.181Z,1.06
2023-05-13T12:09:28.178Z,0.99
2023-05-13T12:10:28.168Z,1.01
2023-05-13T12:11:28.176Z,0.95
2023-05-13T12:12:28.169Z,0.99
2023-05-13T12:13:28.173Z,0.99
2023-05-13T12:14:28.148Z,1.06
2023-05-13T12:15:28.130Z,1.00
2023-05-13T12:16:28.198Z,0.98
2023-05-13T12:17:28.163Z,1.01
2023-05-13T12:18:28.153Z,0.99
2023-05-13T12:19:28.102Z,1.00
2023-05-13T12:20:28.094Z,0.95
2023-05-13T12:21:28.135Z,0.95
2023-05-13T12:22:28.152Z,0.99
2023-05-13T12:23:28.187Z,0.98
2023-05-13T12:24:28.203Z,0.87
2023-05-13T12:25:28.216Z,0.88
2023-05-13T12:26:28.231Z,0.89
2023-05-13T12:27:28.262Z,0.92
2023-05-13T12:28:28.267Z,0.92
2023-05-13T12:29:28.311Z,0.90
2023-05-13T12:30:28.361Z,0.87
2023-05-13T12:31:28.348Z,0.90
2023-05-13T12:32:28.402Z,0.92
2023-05-13T12:33:28.366Z,0.86
2023-05-13T12:34:28.378Z,0.85
2023-05-13T12:35:28.389Z,0.87
2023-05-13T12:36:28.459Z,0.85
2023-05-13T12:37:28.448Z,0.86
2023-05-13T12:38:28.464Z,0.85
2023-05-13T12:39:28.496Z,0.85
2023-05-13T12:40:28.494Z,0.82
2023-05-13T12:41:28.522Z,0.86
2023-05-13T12:42:28.546Z,0.83
2023-05-13T12:43:28.568Z,0.80
2023-05-13T12:44:28.578Z,0.81
2023-05-13T12:45:28.600Z,0.80
2023-05-13T12:46:28.705Z,0.81
2023-05-13T12:47:28.649Z,0.83
2023-05-13T12:48:28.658Z,0.84
2023-05-13T12:49:28.683Z,0.84
2023-05-13T12:50:28.708Z,0.77
2023-05-13T12:51:28.706Z,0.77
2023-05-13T12:52:28.723Z,0.78
2023-05-13T12:53:28.749Z,0.80
2023-05-13T12:54:28.791Z,0.79
2023-05-13T12:55:28.808Z,0.83
2023-05-13T12:56:28.816Z,0.78
2023-05-13T12:57:30.025Z,0.74
2023-05-13T12:58:28.821Z,0.76
2023-05-13T12:59:28.799Z,0.82
2023-05-13T13:00:28.813Z,0.84
2023-05-13T13:01:28.884Z,0.77
2023-05-13T13:02:28.861Z,0.80
2023-05-13T13:03:28.910Z,0.80
2023-05-13T13:04:28.761Z,0.75
2023-05-13T13:05:28.760Z,0.77
2023-05-13T13:06:28.787Z,0.74
2023-05-13T13:07:28.741Z,0.76
2023-05-13T13:08:30.425Z,0.75
2023-05-13T13:09:28.745Z,0.75
2023-05-13T13:10:28.755Z,0.75
2023-05-13T13:11:28.738Z,0.76
2023-05-13T13:12:28.707Z,0.75
2023-05-13T13:13:28.723Z,0.77
2023-05-13T13:14:28.700Z,0.79
2023-05-13T13:15:28.696Z,0.78
2023-05-13T13:16:28.734Z,0.78
2023-05-13T13:17:28.762Z,0.78
2023-05-13T13:18:28.686Z,0.77